sensor_id;sensor_type;location;lat;lon;timestamp;P1;durP1;ratioP1;P2;durP2;ratioP2
43650;SDS011;29247;50.944;5.382;2022-08-19T00:00:44;13.60;;;11.50;;
43650;SDS011;29247;50.944;5.382;2022-08-19T00:03:09;12.60;;;11.23;;
43650;SDS011;29247;50.944;5.382;2022-08-19T00:08:22;13.70;;;11.65;;
43650;SDS011;29247;50.944;5.382;2022-08-19T00:10:50;15.27;;;12.38;;
43650;SDS011;29247;50.944;5.382;2022-08-19T00:13:16;12.77;;;11.48;;
43650;SDS011;29247;50.944;5.382;2022-08-19T00:15:44;13.60;;;11.82;;
43650;SDS011;29247;50.944;5.382;2022-08-19T00:18:10;14.05;;;12.55;;
43650;SDS011;29247;50.944;5.382;2022-08-19T00:20:36;11.98;;;10.77;;
43650;SDS011;29247;50.944;5.382;2022-08-19T00:23:05;13.57;;;11.30;;
43650;SDS011;29247;50.944;5.382;2022-08-19T00:25:31;12.10;;;10.80;;
43650;SDS011;29247;50.944;5.382;2022-08-19T00:27:58;11.65;;;10.45;;
43650;SDS011;29247;50.944;5.382;2022-08-19T00:30:24;12.05;;;10.77;;
43650;SDS011;29247;50.944;5.382;2022-08-19T00:32:52;15.50;;;12.25;;
43650;SDS011;29247;50.944;5.382;2022-08-19T00:35:19;14.52;;;13.05;;
43650;SDS011;29247;50.944;5.382;2022-08-19T00:37:46;13.75;;;12.35;;
43650;SDS011;29247;50.944;5.382;2022-08-19T00:40:15;16.15;;;13.50;;
43650;SDS011;29247;50.944;5.382;2022-08-19T00:42:45;16.25;;;14.60;;
43650;SDS011;29247;50.944;5.382;2022-08-19T00:45:14;16.10;;;12.38;;
43650;SDS011;29247;50.944;5.382;2022-08-19T00:50:11;15.27;;;12.43;;
43650;SDS011;29247;50.944;5.382;2022-08-19T00:52:41;14.73;;;12.30;;
43650;SDS011;29247;50.944;5.382;2022-08-19T00:55:10;17.52;;;12.20;;
43650;SDS011;29247;50.944;5.382;2022-08-19T00:57:41;13.82;;;12.43;;
43650;SDS011;29247;50.944;5.382;2022-08-19T01:00:13;13.18;;;11.88;;
43650;SDS011;29247;50.944;5.382;2022-08-19T01:02:45;13.60;;;12.20;;
43650;SDS011;29247;50.944;5.382;2022-08-19T01:05:14;15.77;;;12.10;;
43650;SDS011;29247;50.944;5.382;2022-08-19T01:07:43;12.98;;;10.98;;
43650;SDS011;29247;50.944;5.382;2022-08-19T01:10:13;15.32;;;12.43;;
43650;SDS011;29247;50.944;5.382;2022-08-19T01:12:44;14.32;;;12.75;;
43650;SDS011;29247;50.944;5.382;2022-08-19T01:15:17;14.82;;;13.25;;
43650;SDS011;29247;50.944;5.382;2022-08-19T01:17:50;13.90;;;11.73;;
43650;SDS011;29247;50.944;5.382;2022-08-19T01:20:20;14.75;;;13.25;;
43650;SDS011;29247;50.944;5.382;2022-08-19T01:25:22;16.05;;;13.90;;
43650;SDS011;29247;50.944;5.382;2022-08-19T01:27:52;14.88;;;13.27;;
43650;SDS011;29247;50.944;5.382;2022-08-19T01:30:23;22.20;;;16.30;;
43650;SDS011;29247;50.944;5.382;2022-08-19T01:32:54;17.60;;;12.77;;
43650;SDS011;29247;50.944;5.382;2022-08-19T01:35:22;17.83;;;14.77;;
43650;SDS011;29247;50.944;5.382;2022-08-19T01:37:56;14.60;;;12.93;;
43650;SDS011;29247;50.944;5.382;2022-08-19T01:40:24;15.80;;;12.63;;
43650;SDS011;29247;50.944;5.382;2022-08-19T01:43:00;15.55;;;12.93;;
43650;SDS011;29247;50.944;5.382;2022-08-19T01:45:28;14.75;;;12.98;;
43650;SDS011;29247;50.944;5.382;2022-08-19T01:47:55;13.98;;;11.68;;
43650;SDS011;29247;50.944;5.382;2022-08-19T01:50:26;13.35;;;10.60;;
43650;SDS011;29247;50.944;5.382;2022-08-19T01:52:58;12.38;;;10.32;;
43650;SDS011;29247;50.944;5.382;2022-08-19T01:55:24;13.02;;;11.35;;
43650;SDS011;29247;50.944;5.382;2022-08-19T01:57:52;15.95;;;11.73;;
43650;SDS011;29247;50.944;5.382;2022-08-19T02:00:23;13.98;;;12.45;;
43650;SDS011;29247;50.944;5.382;2022-08-19T02:02:54;13.27;;;11.45;;
43650;SDS011;29247;50.944;5.382;2022-08-19T02:05:20;15.88;;;12.32;;
43650;SDS011;29247;50.944;5.382;2022-08-19T02:07:46;14.75;;;11.65;;
43650;SDS011;29247;50.944;5.382;2022-08-19T02:10:15;18.67;;;13.30;;
43650;SDS011;29247;50.944;5.382;2022-08-19T02:12:47;18.40;;;13.73;;
43650;SDS011;29247;50.944;5.382;2022-08-19T02:15:14;18.33;;;11.98;;
43650;SDS011;29247;50.944;5.382;2022-08-19T02:17:42;18.90;;;13.82;;
43650;SDS011;29247;50.944;5.382;2022-08-19T02:20:08;22.08;;;14.75;;
43650;SDS011;29247;50.944;5.382;2022-08-19T02:22:35;18.77;;;14.95;;
43650;SDS011;29247;50.944;5.382;2022-08-19T02:25:01;21.25;;;14.77;;
43650;SDS011;29247;50.944;5.382;2022-08-19T02:27:27;20.33;;;14.85;;
43650;SDS011;29247;50.944;5.382;2022-08-19T02:29:55;23.02;;;14.85;;
43650;SDS011;29247;50.944;5.382;2022-08-19T02:32:21;16.95;;;13.05;;
43650;SDS011;29247;50.944;5.382;2022-08-19T02:34:47;22.52;;;14.88;;
43650;SDS011;29247;50.944;5.382;2022-08-19T02:37:13;25.35;;;16.13;;
43650;SDS011;29247;50.944;5.382;2022-08-19T02:39:57;23.65;;;15.35;;
43650;SDS011;29247;50.944;5.382;2022-08-19T02:42:26;24.67;;;16.80;;
43650;SDS011;29247;50.944;5.382;2022-08-19T02:44:55;28.13;;;16.70;;
43650;SDS011;29247;50.944;5.382;2022-08-19T02:47:21;23.30;;;16.08;;
43650;SDS011;29247;50.944;5.382;2022-08-19T02:49:48;25.55;;;16.73;;
43650;SDS011;29247;50.944;5.382;2022-08-19T02:52:17;28.33;;;18.05;;
43650;SDS011;29247;50.944;5.382;2022-08-19T02:54:45;25.23;;;17.65;;
43650;SDS011;29247;50.944;5.382;2022-08-19T02:59:41;26.65;;;16.73;;
43650;SDS011;29247;50.944;5.382;2022-08-19T03:02:07;24.58;;;15.63;;
43650;SDS011;29247;50.944;5.382;2022-08-19T03:04:37;29.63;;;17.05;;
43650;SDS011;29247;50.944;5.382;2022-08-19T03:07:06;29.10;;;17.75;;
43650;SDS011;29247;50.944;5.382;2022-08-19T03:09:32;28.65;;;18.35;;
43650;SDS011;29247;50.944;5.382;2022-08-19T03:11:57;29.73;;;18.85;;
43650;SDS011;29247;50.944;5.382;2022-08-19T03:14:23;25.90;;;17.15;;
43650;SDS011;29247;50.944;5.382;2022-08-19T03:16:50;27.35;;;17.25;;
43650;SDS011;29247;50.944;5.382;2022-08-19T03:19:18;28.92;;;18.25;;
43650;SDS011;29247;50.944;5.382;2022-08-19T03:21:46;29.30;;;18.50;;
43650;SDS011;29247;50.944;5.382;2022-08-19T03:24:12;33.83;;;20.60;;
43650;SDS011;29247;50.944;5.382;2022-08-19T03:26:43;33.08;;;19.40;;
43650;SDS011;29247;50.944;5.382;2022-08-19T03:29:10;31.38;;;18.85;;
43650;SDS011;29247;50.944;5.382;2022-08-19T03:31:37;29.67;;;18.58;;
43650;SDS011;29247;50.944;5.382;2022-08-19T03:34:06;27.45;;;16.30;;
43650;SDS011;29247;50.944;5.382;2022-08-19T03:36:38;29.80;;;18.60;;
43650;SDS011;29247;50.944;5.382;2022-08-19T03:39:06;29.98;;;18.48;;
43650;SDS011;29247;50.944;5.382;2022-08-19T03:41:37;28.95;;;18.13;;
43650;SDS011;29247;50.944;5.382;2022-08-19T03:44:05;24.35;;;16.52;;
43650;SDS011;29247;50.944;5.382;2022-08-19T03:46:35;32.42;;;18.58;;
43650;SDS011;29247;50.944;5.382;2022-08-19T03:49:02;28.02;;;16.90;;
43650;SDS011;29247;50.944;5.382;2022-08-19T03:51:34;33.10;;;18.20;;
43650;SDS011;29247;50.944;5.382;2022-08-19T03:54:02;30.07;;;18.63;;
43650;SDS011;29247;50.944;5.382;2022-08-19T03:59:02;29.85;;;17.35;;
43650;SDS011;29247;50.944;5.382;2022-08-19T04:01:29;27.67;;;17.02;;
43650;SDS011;29247;50.944;5.382;2022-08-19T04:03:58;28.83;;;17.23;;
43650;SDS011;29247;50.944;5.382;2022-08-19T04:06:26;27.58;;;16.90;;
43650;SDS011;29247;50.944;5.382;2022-08-19T04:08:57;30.95;;;18.38;;
43650;SDS011;29247;50.944;5.382;2022-08-19T04:11:27;35.92;;;19.58;;
43650;SDS011;29247;50.944;5.382;2022-08-19T04:13:55;32.35;;;18.92;;
43650;SDS011;29247;50.944;5.382;2022-08-19T04:16:22;30.63;;;18.80;;
43650;SDS011;29247;50.944;5.382;2022-08-19T04:18:50;33.67;;;19.23;;
43650;SDS011;29247;50.944;5.382;2022-08-19T04:21:18;29.20;;;17.75;;
43650;SDS011;29247;50.944;5.382;2022-08-19T04:23:45;30.88;;;19.35;;
43650;SDS011;29247;50.944;5.382;2022-08-19T04:26:18;32.90;;;19.33;;
43650;SDS011;29247;50.944;5.382;2022-08-19T04:28:47;32.30;;;19.83;;
43650;SDS011;29247;50.944;5.382;2022-08-19T04:31:21;24.70;;;16.33;;
43650;SDS011;29247;50.944;5.382;2022-08-19T04:33:54;28.20;;;17.40;;
43650;SDS011;29247;50.944;5.382;2022-08-19T04:36:26;33.25;;;18.88;;
43650;SDS011;29247;50.944;5.382;2022-08-19T04:38:58;28.55;;;17.45;;
43650;SDS011;29247;50.944;5.382;2022-08-19T04:41:27;33.80;;;18.92;;
43650;SDS011;29247;50.944;5.382;2022-08-19T04:44:12;32.30;;;18.63;;
43650;SDS011;29247;50.944;5.382;2022-08-19T04:46:39;35.10;;;20.70;;
43650;SDS011;29247;50.944;5.382;2022-08-19T04:49:05;33.40;;;18.88;;
43650;SDS011;29247;50.944;5.382;2022-08-19T04:51:39;29.73;;;18.25;;
43650;SDS011;29247;50.944;5.382;2022-08-19T04:54:08;32.85;;;18.98;;
43650;SDS011;29247;50.944;5.382;2022-08-19T04:56:39;29.73;;;18.20;;
43650;SDS011;29247;50.944;5.382;2022-08-19T04:59:05;27.92;;;17.50;;
43650;SDS011;29247;50.944;5.382;2022-08-19T05:01:34;33.97;;;19.27;;
43650;SDS011;29247;50.944;5.382;2022-08-19T05:04:05;33.88;;;18.52;;
43650;SDS011;29247;50.944;5.382;2022-08-19T05:06:32;31.98;;;18.02;;
43650;SDS011;29247;50.944;5.382;2022-08-19T05:09:04;27.08;;;16.63;;
43650;SDS011;29247;50.944;5.382;2022-08-19T05:11:32;36.25;;;19.42;;
43650;SDS011;29247;50.944;5.382;2022-08-19T05:14:00;33.70;;;19.10;;
43650;SDS011;29247;50.944;5.382;2022-08-19T05:16:27;32.78;;;18.85;;
43650;SDS011;29247;50.944;5.382;2022-08-19T05:18:55;33.78;;;18.92;;
43650;SDS011;29247;50.944;5.382;2022-08-19T05:21:42;30.70;;;16.60;;
43650;SDS011;29247;50.944;5.382;2022-08-19T05:24:27;26.10;;;16.60;;
43650;SDS011;29247;50.944;5.382;2022-08-19T05:26:54;26.42;;;15.93;;
43650;SDS011;29247;50.944;5.382;2022-08-19T05:29:21;25.80;;;16.80;;
43650;SDS011;29247;50.944;5.382;2022-08-19T05:31:54;32.50;;;18.42;;
43650;SDS011;29247;50.944;5.382;2022-08-19T05:34:21;29.92;;;17.83;;
43650;SDS011;29247;50.944;5.382;2022-08-19T05:36:51;32.97;;;18.38;;
43650;SDS011;29247;50.944;5.382;2022-08-19T05:41:54;35.78;;;18.33;;
43650;SDS011;29247;50.944;5.382;2022-08-19T05:44:25;35.05;;;19.80;;
43650;SDS011;29247;50.944;5.382;2022-08-19T05:46:52;39.90;;;21.00;;
43650;SDS011;29247;50.944;5.382;2022-08-19T05:49:18;37.55;;;21.05;;
43650;SDS011;29247;50.944;5.382;2022-08-19T05:51:49;37.92;;;21.50;;
43650;SDS011;29247;50.944;5.382;2022-08-19T05:54:15;39.75;;;22.77;;
43650;SDS011;29247;50.944;5.382;2022-08-19T05:56:41;45.72;;;22.88;;
43650;SDS011;29247;50.944;5.382;2022-08-19T05:59:15;42.08;;;23.10;;
43650;SDS011;29247;50.944;5.382;2022-08-19T06:01:43;46.13;;;23.33;;
43650;SDS011;29247;50.944;5.382;2022-08-19T06:04:10;42.58;;;23.52;;
43650;SDS011;29247;50.944;5.382;2022-08-19T06:06:39;42.65;;;23.88;;
43650;SDS011;29247;50.944;5.382;2022-08-19T06:11:35;35.83;;;20.35;;
43650;SDS011;29247;50.944;5.382;2022-08-19T06:14:11;36.70;;;22.38;;
43650;SDS011;29247;50.944;5.382;2022-08-19T06:16:43;37.80;;;22.25;;
43650;SDS011;29247;50.944;5.382;2022-08-19T06:19:12;36.92;;;20.58;;
43650;SDS011;29247;50.944;5.382;2022-08-19T06:21:43;35.58;;;21.17;;
43650;SDS011;29247;50.944;5.382;2022-08-19T06:24:13;35.03;;;20.55;;
43650;SDS011;29247;50.944;5.382;2022-08-19T06:26:52;34.95;;;18.52;;
43650;SDS011;29247;50.944;5.382;2022-08-19T06:29:20;35.17;;;19.77;;
43650;SDS011;29247;50.944;5.382;2022-08-19T06:31:49;30.58;;;17.75;;
43650;SDS011;29247;50.944;5.382;2022-08-19T06:34:17;30.23;;;18.20;;
43650;SDS011;29247;50.944;5.382;2022-08-19T06:36:47;31.05;;;18.13;;
43650;SDS011;29247;50.944;5.382;2022-08-19T06:39:16;28.95;;;17.23;;
43650;SDS011;29247;50.944;5.382;2022-08-19T06:41:45;30.25;;;17.55;;
43650;SDS011;29247;50.944;5.382;2022-08-19T06:44:12;27.52;;;16.45;;
43650;SDS011;29247;50.944;5.382;2022-08-19T06:46:41;26.60;;;16.65;;
43650;SDS011;29247;50.944;5.382;2022-08-19T06:49:07;29.33;;;16.00;;
43650;SDS011;29247;50.944;5.382;2022-08-19T06:51:35;26.23;;;15.45;;
43650;SDS011;29247;50.944;5.382;2022-08-19T06:54:00;27.13;;;16.67;;
43650;SDS011;29247;50.944;5.382;2022-08-19T06:56:29;24.42;;;14.15;;
43650;SDS011;29247;50.944;5.382;2022-08-19T06:59:02;22.25;;;14.07;;
43650;SDS011;29247;50.944;5.382;2022-08-19T07:01:29;23.92;;;14.25;;
43650;SDS011;29247;50.944;5.382;2022-08-19T07:03:57;21.48;;;13.43;;
43650;SDS011;29247;50.944;5.382;2022-08-19T07:06:26;23.50;;;13.55;;
43650;SDS011;29247;50.944;5.382;2022-08-19T07:08:55;24.33;;;13.27;;
43650;SDS011;29247;50.944;5.382;2022-08-19T07:11:23;21.98;;;13.57;;
43650;SDS011;29247;50.944;5.382;2022-08-19T07:13:51;21.08;;;12.93;;
43650;SDS011;29247;50.944;5.382;2022-08-19T07:16:22;20.23;;;11.00;;
43650;SDS011;29247;50.944;5.382;2022-08-19T07:18:48;19.75;;;12.20;;
43650;SDS011;29247;50.944;5.382;2022-08-19T07:21:17;22.55;;;11.27;;
43650;SDS011;29247;50.944;5.382;2022-08-19T07:23:44;22.63;;;12.10;;
43650;SDS011;29247;50.944;5.382;2022-08-19T07:26:12;20.38;;;11.95;;
43650;SDS011;29247;50.944;5.382;2022-08-19T07:28:45;17.20;;;10.63;;
43650;SDS011;29247;50.944;5.382;2022-08-19T07:31:19;23.80;;;11.75;;
43650;SDS011;29247;50.944;5.382;2022-08-19T07:33:47;22.38;;;12.00;;
43650;SDS011;29247;50.944;5.382;2022-08-19T07:36:15;18.33;;;10.55;;
43650;SDS011;29247;50.944;5.382;2022-08-19T07:38:45;18.08;;;10.00;;
43650;SDS011;29247;50.944;5.382;2022-08-19T07:41:27;19.08;;;10.55;;
43650;SDS011;29247;50.944;5.382;2022-08-19T07:43:59;18.88;;;10.65;;
43650;SDS011;29247;50.944;5.382;2022-08-19T07:46:29;18.33;;;10.82;;
43650;SDS011;29247;50.944;5.382;2022-08-19T07:48:56;20.45;;;11.48;;
43650;SDS011;29247;50.944;5.382;2022-08-19T07:51:25;19.60;;;10.10;;
43650;SDS011;29247;50.944;5.382;2022-08-19T07:53:51;14.57;;;9.45;;
43650;SDS011;29247;50.944;5.382;2022-08-19T07:56:19;17.38;;;8.85;;
43650;SDS011;29247;50.944;5.382;2022-08-19T07:58:46;17.45;;;10.07;;
43650;SDS011;29247;50.944;5.382;2022-08-19T08:01:17;16.88;;;10.43;;
43650;SDS011;29247;50.944;5.382;2022-08-19T08:03:45;18.85;;;9.45;;
43650;SDS011;29247;50.944;5.382;2022-08-19T08:06:31;17.02;;;9.70;;
43650;SDS011;29247;50.944;5.382;2022-08-19T08:09:17;21.10;;;9.70;;
43650;SDS011;29247;50.944;5.382;2022-08-19T08:14:21;18.60;;;10.32;;
43650;SDS011;29247;50.944;5.382;2022-08-19T08:16:57;17.38;;;9.57;;
43650;SDS011;29247;50.944;5.382;2022-08-19T08:19:27;16.08;;;10.35;;
43650;SDS011;29247;50.944;5.382;2022-08-19T08:21:54;16.38;;;10.00;;
43650;SDS011;29247;50.944;5.382;2022-08-19T08:24:22;17.17;;;9.38;;
43650;SDS011;29247;50.944;5.382;2022-08-19T08:26:50;13.50;;;8.35;;
43650;SDS011;29247;50.944;5.382;2022-08-19T08:29:21;16.55;;;10.20;;
43650;SDS011;29247;50.944;5.382;2022-08-19T08:31:47;16.90;;;9.85;;
43650;SDS011;29247;50.944;5.382;2022-08-19T08:34:13;14.27;;;9.80;;
43650;SDS011;29247;50.944;5.382;2022-08-19T08:36:40;17.73;;;10.38;;
43650;SDS011;29247;50.944;5.382;2022-08-19T08:39:09;12.90;;;8.63;;
43650;SDS011;29247;50.944;5.382;2022-08-19T08:44:06;16.80;;;9.70;;
43650;SDS011;29247;50.944;5.382;2022-08-19T08:46:41;11.18;;;8.38;;
43650;SDS011;29247;50.944;5.382;2022-08-19T08:49:17;11.40;;;8.27;;
43650;SDS011;29247;50.944;5.382;2022-08-19T08:51:59;13.73;;;8.02;;
43650;SDS011;29247;50.944;5.382;2022-08-19T08:54:41;16.55;;;9.20;;
43650;SDS011;29247;50.944;5.382;2022-08-19T08:57:12;15.68;;;8.27;;
43650;SDS011;29247;50.944;5.382;2022-08-19T08:59:45;16.33;;;9.13;;
43650;SDS011;29247;50.944;5.382;2022-08-19T09:02:17;15.38;;;8.00;;
43650;SDS011;29247;50.944;5.382;2022-08-19T09:04:43;14.90;;;8.02;;
43650;SDS011;29247;50.944;5.382;2022-08-19T09:07:21;13.57;;;8.63;;
43650;SDS011;29247;50.944;5.382;2022-08-19T09:09:56;10.25;;;6.97;;
43650;SDS011;29247;50.944;5.382;2022-08-19T09:12:38;10.70;;;7.80;;
43650;SDS011;29247;50.944;5.382;2022-08-19T09:15:57;11.65;;;6.93;;
43650;SDS011;29247;50.944;5.382;2022-08-19T09:18:38;11.15;;;7.47;;
43650;SDS011;29247;50.944;5.382;2022-08-19T09:21:09;13.40;;;7.22;;
43650;SDS011;29247;50.944;5.382;2022-08-19T09:23:35;10.63;;;6.80;;
43650;SDS011;29247;50.944;5.382;2022-08-19T09:26:06;14.50;;;6.72;;
43650;SDS011;29247;50.944;5.382;2022-08-19T09:28:39;10.52;;;7.00;;
43650;SDS011;29247;50.944;5.382;2022-08-19T09:31:18;11.57;;;7.93;;
43650;SDS011;29247;50.944;5.382;2022-08-19T09:33:51;8.73;;;6.10;;
43650;SDS011;29247;50.944;5.382;2022-08-19T09:36:18;10.85;;;6.55;;
43650;SDS011;29247;50.944;5.382;2022-08-19T09:38:47;10.07;;;6.63;;
43650;SDS011;29247;50.944;5.382;2022-08-19T09:41:16;10.65;;;5.90;;
43650;SDS011;29247;50.944;5.382;2022-08-19T09:43:50;9.20;;;5.90;;
43650;SDS011;29247;50.944;5.382;2022-08-19T09:46:21;10.18;;;6.07;;
43650;SDS011;29247;50.944;5.382;2022-08-19T09:48:51;9.55;;;5.95;;
43650;SDS011;29247;50.944;5.382;2022-08-19T09:51:24;7.60;;;5.03;;
43650;SDS011;29247;50.944;5.382;2022-08-19T09:53:54;6.30;;;5.32;;
43650;SDS011;29247;50.944;5.382;2022-08-19T09:56:23;8.25;;;5.65;;
43650;SDS011;29247;50.944;5.382;2022-08-19T09:58:49;9.80;;;5.45;;
43650;SDS011;29247;50.944;5.382;2022-08-19T10:01:25;5.97;;;4.47;;
43650;SDS011;29247;50.944;5.382;2022-08-19T10:03:55;7.68;;;3.63;;
43650;SDS011;29247;50.944;5.382;2022-08-19T10:06:25;6.50;;;4.28;;
43650;SDS011;29247;50.944;5.382;2022-08-19T10:08:56;4.53;;;3.80;;
43650;SDS011;29247;50.944;5.382;2022-08-19T10:11:24;6.50;;;3.58;;
43650;SDS011;29247;50.944;5.382;2022-08-19T10:13:54;6.05;;;3.40;;
43650;SDS011;29247;50.944;5.382;2022-08-19T10:16:23;4.28;;;3.47;;
43650;SDS011;29247;50.944;5.382;2022-08-19T10:18:50;5.80;;;3.40;;
43650;SDS011;29247;50.944;5.382;2022-08-19T10:21:21;6.53;;;3.10;;
43650;SDS011;29247;50.944;5.382;2022-08-19T10:23:49;4.93;;;3.42;;
43650;SDS011;29247;50.944;5.382;2022-08-19T10:26:19;5.40;;;3.28;;
43650;SDS011;29247;50.944;5.382;2022-08-19T10:28:46;5.90;;;3.65;;
43650;SDS011;29247;50.944;5.382;2022-08-19T10:31:15;5.03;;;3.58;;
43650;SDS011;29247;50.944;5.382;2022-08-19T10:33:44;3.53;;;2.70;;
43650;SDS011;29247;50.944;5.382;2022-08-19T10:36:16;4.10;;;3.10;;
43650;SDS011;29247;50.944;5.382;2022-08-19T10:38:44;3.95;;;3.25;;
43650;SDS011;29247;50.944;5.382;2022-08-19T10:44:06;7.63;;;4.30;;
43650;SDS011;29247;50.944;5.382;2022-08-19T10:46:41;6.95;;;3.13;;
43650;SDS011;29247;50.944;5.382;2022-08-19T10:49:12;5.25;;;2.90;;
43650;SDS011;29247;50.944;5.382;2022-08-19T10:51:41;4.95;;;2.92;;
43650;SDS011;29247;50.944;5.382;2022-08-19T10:54:25;7.40;;;2.95;;
43650;SDS011;29247;50.944;5.382;2022-08-19T10:57:11;5.70;;;2.50;;
43650;SDS011;29247;50.944;5.382;2022-08-19T10:59:38;4.00;;;2.67;;
43650;SDS011;29247;50.944;5.382;2022-08-19T11:02:07;4.70;;;3.33;;
43650;SDS011;29247;50.944;5.382;2022-08-19T11:04:38;5.50;;;3.65;;
43650;SDS011;29247;50.944;5.382;2022-08-19T11:07:05;7.43;;;2.63;;
43650;SDS011;29247;50.944;5.382;2022-08-19T11:09:36;5.55;;;2.40;;
43650;SDS011;29247;50.944;5.382;2022-08-19T11:12:04;2.45;;;2.25;;
43650;SDS011;29247;50.944;5.382;2022-08-19T11:14:30;2.95;;;2.53;;
43650;SDS011;29247;50.944;5.382;2022-08-19T11:16:58;3.58;;;2.33;;
43650;SDS011;29247;50.944;5.382;2022-08-19T11:19:29;3.30;;;2.72;;
43650;SDS011;29247;50.944;5.382;2022-08-19T11:22:00;3.95;;;2.58;;
43650;SDS011;29247;50.944;5.382;2022-08-19T11:24:28;3.80;;;2.83;;
43650;SDS011;29247;50.944;5.382;2022-08-19T11:29:46;4.25;;;2.40;;
43650;SDS011;29247;50.944;5.382;2022-08-19T11:32:11;5.32;;;2.58;;
43650;SDS011;29247;50.944;5.382;2022-08-19T11:34:37;3.15;;;2.50;;
43650;SDS011;29247;50.944;5.382;2022-08-19T11:37:04;4.43;;;3.03;;
43650;SDS011;29247;50.944;5.382;2022-08-19T11:39:31;6.45;;;2.67;;
43650;SDS011;29247;50.944;5.382;2022-08-19T11:42:01;3.58;;;2.58;;
43650;SDS011;29247;50.944;5.382;2022-08-19T11:44:50;3.95;;;2.28;;
43650;SDS011;29247;50.944;5.382;2022-08-19T11:47:17;4.38;;;2.78;;
43650;SDS011;29247;50.944;5.382;2022-08-19T11:49:43;4.63;;;2.90;;
43650;SDS011;29247;50.944;5.382;2022-08-19T11:52:12;6.72;;;3.30;;
43650;SDS011;29247;50.944;5.382;2022-08-19T11:54:40;4.28;;;3.13;;
43650;SDS011;29247;50.944;5.382;2022-08-19T11:57:06;4.60;;;3.17;;
43650;SDS011;29247;50.944;5.382;2022-08-19T11:59:31;4.00;;;2.17;;
43650;SDS011;29247;50.944;5.382;2022-08-19T12:01:57;5.65;;;3.00;;
43650;SDS011;29247;50.944;5.382;2022-08-19T12:04:25;2.65;;;2.30;;
43650;SDS011;29247;50.944;5.382;2022-08-19T12:06:50;3.90;;;2.88;;
43650;SDS011;29247;50.944;5.382;2022-08-19T12:09:16;3.22;;;2.53;;
43650;SDS011;29247;50.944;5.382;2022-08-19T12:11:44;4.03;;;2.78;;
43650;SDS011;29247;50.944;5.382;2022-08-19T12:14:11;3.00;;;2.30;;
43650;SDS011;29247;50.944;5.382;2022-08-19T12:16:43;2.88;;;2.60;;
43650;SDS011;29247;50.944;5.382;2022-08-19T12:19:14;6.05;;;2.70;;
43650;SDS011;29247;50.944;5.382;2022-08-19T12:21:42;3.03;;;2.35;;
43650;SDS011;29247;50.944;5.382;2022-08-19T12:24:08;4.97;;;3.25;;
43650;SDS011;29247;50.944;5.382;2022-08-19T12:26:34;5.05;;;2.78;;
43650;SDS011;29247;50.944;5.382;2022-08-19T12:29:03;4.75;;;2.53;;
43650;SDS011;29247;50.944;5.382;2022-08-19T12:31:29;4.72;;;3.17;;
43650;SDS011;29247;50.944;5.382;2022-08-19T12:33:55;4.15;;;2.75;;
43650;SDS011;29247;50.944;5.382;2022-08-19T12:36:21;3.67;;;2.58;;
43650;SDS011;29247;50.944;5.382;2022-08-19T12:38:48;4.00;;;2.42;;
43650;SDS011;29247;50.944;5.382;2022-08-19T12:41:16;3.78;;;2.38;;
43650;SDS011;29247;50.944;5.382;2022-08-19T12:43:43;4.68;;;3.03;;
43650;SDS011;29247;50.944;5.382;2022-08-19T12:46:14;3.75;;;2.33;;
43650;SDS011;29247;50.944;5.382;2022-08-19T12:48:40;4.95;;;2.85;;
43650;SDS011;29247;50.944;5.382;2022-08-19T12:51:11;5.97;;;3.17;;
43650;SDS011;29247;50.944;5.382;2022-08-19T12:53:39;3.45;;;2.30;;
43650;SDS011;29247;50.944;5.382;2022-08-19T12:56:09;4.10;;;2.78;;
43650;SDS011;29247;50.944;5.382;2022-08-19T12:58:36;4.47;;;2.63;;
43650;SDS011;29247;50.944;5.382;2022-08-19T13:01:08;3.20;;;2.40;;
43650;SDS011;29247;50.944;5.382;2022-08-19T13:03:36;3.95;;;2.38;;
43650;SDS011;29247;50.944;5.382;2022-08-19T13:06:02;5.30;;;2.72;;
43650;SDS011;29247;50.944;5.382;2022-08-19T13:08:28;3.58;;;2.35;;
43650;SDS011;29247;50.944;5.382;2022-08-19T13:10:54;5.43;;;2.35;;
43650;SDS011;29247;50.944;5.382;2022-08-19T13:16:15;2.00;;;1.80;;
43650;SDS011;29247;50.944;5.382;2022-08-19T13:18:57;2.97;;;2.40;;
43650;SDS011;29247;50.944;5.382;2022-08-19T13:21:24;5.60;;;2.40;;
43650;SDS011;29247;50.944;5.382;2022-08-19T13:23:54;4.97;;;2.25;;
43650;SDS011;29247;50.944;5.382;2022-08-19T13:26:21;3.08;;;2.33;;
43650;SDS011;29247;50.944;5.382;2022-08-19T13:28:47;3.60;;;2.28;;
43650;SDS011;29247;50.944;5.382;2022-08-19T13:31:32;3.70;;;2.42;;
43650;SDS011;29247;50.944;5.382;2022-08-19T13:34:18;3.08;;;1.92;;
43650;SDS011;29247;50.944;5.382;2022-08-19T13:36:52;4.22;;;2.20;;
43650;SDS011;29247;50.944;5.382;2022-08-19T13:39:18;3.47;;;1.85;;
43650;SDS011;29247;50.944;5.382;2022-08-19T13:41:45;2.22;;;1.58;;
43650;SDS011;29247;50.944;5.382;2022-08-19T13:44:17;2.35;;;1.80;;
43650;SDS011;29247;50.944;5.382;2022-08-19T13:46:43;5.95;;;1.90;;
43650;SDS011;29247;50.944;5.382;2022-08-19T13:49:19;2.10;;;1.35;;
43650;SDS011;29247;50.944;5.382;2022-08-19T13:51:48;3.40;;;1.70;;
43650;SDS011;29247;50.944;5.382;2022-08-19T13:54:16;2.67;;;1.38;;
43650;SDS011;29247;50.944;5.382;2022-08-19T13:56:42;2.03;;;1.30;;
43650;SDS011;29247;50.944;5.382;2022-08-19T13:59:11;1.30;;;1.20;;
43650;SDS011;29247;50.944;5.382;2022-08-19T14:01:38;2.00;;;1.38;;
43650;SDS011;29247;50.944;5.382;2022-08-19T14:04:04;2.35;;;1.20;;
43650;SDS011;29247;50.944;5.382;2022-08-19T14:06:31;3.42;;;1.50;;
43650;SDS011;29247;50.944;5.382;2022-08-19T14:08:57;2.08;;;1.60;;
43650;SDS011;29247;50.944;5.382;2022-08-19T14:11:23;1.73;;;1.00;;
43650;SDS011;29247;50.944;5.382;2022-08-19T14:13:49;3.70;;;1.65;;
43650;SDS011;29247;50.944;5.382;2022-08-19T14:16:15;1.83;;;1.50;;
43650;SDS011;29247;50.944;5.382;2022-08-19T14:18:41;2.90;;;1.42;;
43650;SDS011;29247;50.944;5.382;2022-08-19T14:21:14;1.60;;;1.20;;
43650;SDS011;29247;50.944;5.382;2022-08-19T14:23:44;1.30;;;1.20;;
43650;SDS011;29247;50.944;5.382;2022-08-19T14:26:12;3.85;;;1.40;;
43650;SDS011;29247;50.944;5.382;2022-08-19T14:28:59;2.20;;;1.60;;
43650;SDS011;29247;50.944;5.382;2022-08-19T14:31:26;2.88;;;1.67;;
43650;SDS011;29247;50.944;5.382;2022-08-19T14:33:52;1.95;;;1.50;;
43650;SDS011;29247;50.944;5.382;2022-08-19T14:36:18;2.58;;;1.25;;
43650;SDS011;29247;50.944;5.382;2022-08-19T14:38:45;2.90;;;1.50;;
43650;SDS011;29247;50.944;5.382;2022-08-19T14:41:19;2.10;;;1.25;;
43650;SDS011;29247;50.944;5.382;2022-08-19T14:43:48;4.15;;;2.17;;
43650;SDS011;29247;50.944;5.382;2022-08-19T14:46:16;1.90;;;1.58;;
43650;SDS011;29247;50.944;5.382;2022-08-19T14:48:44;3.20;;;1.50;;
43650;SDS011;29247;50.944;5.382;2022-08-19T14:51:11;1.85;;;1.50;;
43650;SDS011;29247;50.944;5.382;2022-08-19T14:53:39;1.98;;;1.48;;
43650;SDS011;29247;50.944;5.382;2022-08-19T14:56:13;2.00;;;1.50;;
43650;SDS011;29247;50.944;5.382;2022-08-19T14:58:41;1.88;;;1.30;;
43650;SDS011;29247;50.944;5.382;2022-08-19T15:01:08;2.20;;;1.80;;
43650;SDS011;29247;50.944;5.382;2022-08-19T15:03:35;2.35;;;1.63;;
43650;SDS011;29247;50.944;5.382;2022-08-19T15:06:02;1.73;;;1.63;;
43650;SDS011;29247;50.944;5.382;2022-08-19T15:08:36;2.10;;;1.80;;
43650;SDS011;29247;50.944;5.382;2022-08-19T15:11:06;2.55;;;1.60;;
43650;SDS011;29247;50.944;5.382;2022-08-19T15:13:39;3.03;;;1.75;;
43650;SDS011;29247;50.944;5.382;2022-08-19T15:16:06;1.70;;;1.40;;
43650;SDS011;29247;50.944;5.382;2022-08-19T15:18:35;5.47;;;1.65;;